Homer, OH (43027)

11:11 PM EDT on August 27, 2015 (GMT -0400)
Homer | | Change Station
CLOSE
Current Station
Personal Weather Station
Location: Utica, OH
Elevation: 1033 ft
Nearby Weather Stations

Elev 1033 ft 40.25 °N, 82.56 °W | Updated 10 minutes ago

Partly Cloudy
Partly Cloudy
56.0 °F
Feels Like 56.0 °F
N
0.0
Wind Variable Wind from North
Gusts 0.0 mph

Today
High -- | Low -- °F
--% Chance of Precip.
Yesterday
High -- | Low -- °F
Precip. -- in
6:52 AM 8:09 PM
Waxing Gibbous, 96% visible
Pressure 30.19 in
Visibility 10.0 miles
Clouds Clear
Dew Point 54 °F
Humidity 92%
Rainfall Not available.
Snow Depth Not available.
UV 0 out of 12
Pollen 9.90 out of 12
Air Quality Not available.
Flu Activity Not available.
METAR K4I3 280256Z AUTO 02005KT 10SM CLR 16/14 A3019 RMK AO2
Pressure 30.19 in
Visibility 10.0 miles
Clouds Clear
Dew Point 54 °F
Humidity 92%
Rainfall Not available.
Snow Depth Not available.
UV 0 out of 12
Pollen 9.90 out of 12
Air Quality Not available.
Flu Activity Not available.
METAR K4I3 280256Z AUTO 02005KT 10SM CLR 16/14 A3019 RMK AO2

10-Day Weather Forecast

×

Almanac

Astronomy

Aug. 27, 2015 Rise Set
Actual Time
Civil Twilight
Nautical Twilight
Astronomical Twilight
Moon
Length of Visible Light
Length of Day
Tomorrow will be .
, % of the Moon is Illuminated

Today's Extremes

State Highs State Lows

Community

WunderPhotos

Upload Photos

1,850,312 photos uploaded!

WunderBlogs® & News

Nearby

Air Quality

  Air Quality AQ Index Pollutant
Not available.

Snow Depth

Station Depth Elevation

Earthquake Activity

City Distance Mag. Time & Date
Minimum magnitude displayed is 2.5.

Coastal Water Temperatures

Place Temperature

Stations

Nearby Weather Stations

Station Location Temp. Windchill Dew Point Humidity Wind Precip. Elev Updated Type